sensor_id;sensor_type;location;lat;lon;timestamp;temperature;humidity
8979;DHT22;4524;51.364;5.448;2024-03-02T00:00:41;9.80;99.90
8979;DHT22;4524;51.364;5.448;2024-03-02T00:03:11;9.70;99.90
8979;DHT22;4524;51.364;5.448;2024-03-02T00:05:41;9.70;99.90
8979;DHT22;4524;51.364;5.448;2024-03-02T00:08:13;9.70;99.90
8979;DHT22;4524;51.364;5.448;2024-03-02T00:10:42;9.60;99.90
8979;DHT22;4524;51.364;5.448;2024-03-02T00:13:13;9.20;99.90
8979;DHT22;4524;51.364;5.448;2024-03-02T00:15:42;9.10;99.90
8979;DHT22;4524;51.364;5.448;2024-03-02T00:18:19;9.00;99.90
8979;DHT22;4524;51.364;5.448;2024-03-02T00:20:47;8.90;99.90
8979;DHT22;4524;51.364;5.448;2024-03-02T00:23:16;8.80;99.90
8979;DHT22;4524;51.364;5.448;2024-03-02T00:25:48;8.70;99.90
8979;DHT22;4524;51.364;5.448;2024-03-02T00:28:19;8.60;99.90
8979;DHT22;4524;51.364;5.448;2024-03-02T00:31:02;8.60;99.90
8979;DHT22;4524;51.364;5.448;2024-03-02T00:33:34;8.60;99.90
8979;DHT22;4524;51.364;5.448;2024-03-02T00:36:04;8.50;99.90
8979;DHT22;4524;51.364;5.448;2024-03-02T00:38:34;8.50;99.90
8979;DHT22;4524;51.364;5.448;2024-03-02T00:41:05;8.50;99.90
8979;DHT22;4524;51.364;5.448;2024-03-02T00:43:42;8.50;99.90
8979;DHT22;4524;51.364;5.448;2024-03-02T00:46:17;8.50;99.90
8979;DHT22;4524;51.364;5.448;2024-03-02T00:48:55;8.50;99.90
8979;DHT22;4524;51.364;5.448;2024-03-02T00:51:25;8.40;99.90
8979;DHT22;4524;51.364;5.448;2024-03-02T00:53:54;8.50;99.90
8979;DHT22;4524;51.364;5.448;2024-03-02T00:56:24;8.50;99.90
8979;DHT22;4524;51.364;5.448;2024-03-02T00:58:53;8.50;99.90
8979;DHT22;4524;51.364;5.448;2024-03-02T01:01:21;8.50;99.90
8979;DHT22;4524;51.364;5.448;2024-03-02T01:03:50;8.40;99.90
8979;DHT22;4524;51.364;5.448;2024-03-02T01:06:21;8.50;99.90
8979;DHT22;4524;51.364;5.448;2024-03-02T01:08:50;8.40;99.90
8979;DHT22;4524;51.364;5.448;2024-03-02T01:11:20;8.50;99.90
8979;DHT22;4524;51.364;5.448;2024-03-02T01:13:50;8.50;99.90
8979;DHT22;4524;51.364;5.448;2024-03-02T01:16:19;8.50;99.90
8979;DHT22;4524;51.364;5.448;2024-03-02T01:18:47;8.50;99.90
8979;DHT22;4524;51.364;5.448;2024-03-02T01:21:16;8.40;99.90
8979;DHT22;4524;51.364;5.448;2024-03-02T01:23:46;8.40;99.90
8979;DHT22;4524;51.364;5.448;2024-03-02T01:26:14;8.40;99.90
8979;DHT22;4524;51.364;5.448;2024-03-02T01:28:42;8.40;99.90
8979;DHT22;4524;51.364;5.448;2024-03-02T01:31:11;8.40;99.90
8979;DHT22;4524;51.364;5.448;2024-03-02T01:33:39;8.40;99.90
8979;DHT22;4524;51.364;5.448;2024-03-02T01:36:08;8.40;99.90
8979;DHT22;4524;51.364;5.448;2024-03-02T01:38:36;8.40;99.90
8979;DHT22;4524;51.364;5.448;2024-03-02T01:41:06;8.50;99.90
8979;DHT22;4524;51.364;5.448;2024-03-02T01:43:34;8.40;99.90
8979;DHT22;4524;51.364;5.448;2024-03-02T01:46:06;8.40;99.90
8979;DHT22;4524;51.364;5.448;2024-03-02T01:48:34;8.40;99.90
8979;DHT22;4524;51.364;5.448;2024-03-02T01:51:03;8.40;99.90
8979;DHT22;4524;51.364;5.448;2024-03-02T01:53:33;8.30;99.90
8979;DHT22;4524;51.364;5.448;2024-03-02T01:56:01;8.40;99.90
8979;DHT22;4524;51.364;5.448;2024-03-02T01:58:31;8.30;99.90
8979;DHT22;4524;51.364;5.448;2024-03-02T02:00:59;8.30;99.90
8979;DHT22;4524;51.364;5.448;2024-03-02T02:03:28;8.40;99.90
8979;DHT22;4524;51.364;5.448;2024-03-02T02:05:56;8.30;99.90
8979;DHT22;4524;51.364;5.448;2024-03-02T02:08:24;8.30;99.90
8979;DHT22;4524;51.364;5.448;2024-03-02T02:10:52;8.30;99.90
8979;DHT22;4524;51.364;5.448;2024-03-02T02:13:21;8.20;99.90
8979;DHT22;4524;51.364;5.448;2024-03-02T02:15:50;8.20;99.90
8979;DHT22;4524;51.364;5.448;2024-03-02T02:18:20;8.20;99.90
8979;DHT22;4524;51.364;5.448;2024-03-02T02:20:48;8.20;99.90
8979;DHT22;4524;51.364;5.448;2024-03-02T02:23:18;8.20;99.90
8979;DHT22;4524;51.364;5.448;2024-03-02T02:25:46;8.20;99.90
8979;DHT22;4524;51.364;5.448;2024-03-02T02:28:14;8.20;99.90
8979;DHT22;4524;51.364;5.448;2024-03-02T02:30:43;8.20;99.90
8979;DHT22;4524;51.364;5.448;2024-03-02T02:33:11;8.20;99.90
8979;DHT22;4524;51.364;5.448;2024-03-02T02:35:40;8.20;99.90
8979;DHT22;4524;51.364;5.448;2024-03-02T02:38:08;8.20;99.90
8979;DHT22;4524;51.364;5.448;2024-03-02T02:40:38;8.20;99.90
8979;DHT22;4524;51.364;5.448;2024-03-02T02:43:06;8.20;99.90
8979;DHT22;4524;51.364;5.448;2024-03-02T02:45:35;8.20;99.90
8979;DHT22;4524;51.364;5.448;2024-03-02T02:48:03;8.10;99.90
8979;DHT22;4524;51.364;5.448;2024-03-02T02:50:33;8.10;99.90
8979;DHT22;4524;51.364;5.448;2024-03-02T02:53:01;8.10;99.90
8979;DHT22;4524;51.364;5.448;2024-03-02T02:55:29;8.10;99.90
8979;DHT22;4524;51.364;5.448;2024-03-02T02:57:59;8.00;99.90
8979;DHT22;4524;51.364;5.448;2024-03-02T03:00:27;8.00;99.90
8979;DHT22;4524;51.364;5.448;2024-03-02T03:02:55;8.00;99.90
8979;DHT22;4524;51.364;5.448;2024-03-02T03:05:23;8.00;99.90
8979;DHT22;4524;51.364;5.448;2024-03-02T03:07:52;8.00;99.90
8979;DHT22;4524;51.364;5.448;2024-03-02T03:10:20;8.00;99.90
8979;DHT22;4524;51.364;5.448;2024-03-02T03:12:50;8.00;99.90
8979;DHT22;4524;51.364;5.448;2024-03-02T03:15:20;8.00;99.90
8979;DHT22;4524;51.364;5.448;2024-03-02T03:17:48;8.00;99.90
8979;DHT22;4524;51.364;5.448;2024-03-02T03:20:17;8.00;99.90
8979;DHT22;4524;51.364;5.448;2024-03-02T03:22:48;8.00;99.90
8979;DHT22;4524;51.364;5.448;2024-03-02T03:25:16;8.00;99.90
8979;DHT22;4524;51.364;5.448;2024-03-02T03:27:44;8.10;99.90
8979;DHT22;4524;51.364;5.448;2024-03-02T03:30:13;8.10;99.90
8979;DHT22;4524;51.364;5.448;2024-03-02T03:32:43;8.00;99.90
8979;DHT22;4524;51.364;5.448;2024-03-02T03:35:11;8.00;99.90
8979;DHT22;4524;51.364;5.448;2024-03-02T03:37:41;8.10;99.90
8979;DHT22;4524;51.364;5.448;2024-03-02T03:40:10;8.10;99.90
8979;DHT22;4524;51.364;5.448;2024-03-02T03:42:38;8.00;99.90
8979;DHT22;4524;51.364;5.448;2024-03-02T03:45:07;8.10;99.90
8979;DHT22;4524;51.364;5.448;2024-03-02T03:47:36;8.00;99.90
8979;DHT22;4524;51.364;5.448;2024-03-02T03:50:07;8.00;99.90
8979;DHT22;4524;51.364;5.448;2024-03-02T03:52:35;8.00;99.90
8979;DHT22;4524;51.364;5.448;2024-03-02T03:55:04;8.00;99.90
8979;DHT22;4524;51.364;5.448;2024-03-02T03:57:33;8.00;99.90
8979;DHT22;4524;51.364;5.448;2024-03-02T04:00:02;8.00;99.90
8979;DHT22;4524;51.364;5.448;2024-03-02T04:02:37;8.00;99.90
8979;DHT22;4524;51.364;5.448;2024-03-02T04:05:08;8.00;99.90
8979;DHT22;4524;51.364;5.448;2024-03-02T04:07:38;7.90;99.90
8979;DHT22;4524;51.364;5.448;2024-03-02T04:10:08;7.90;99.90
8979;DHT22;4524;51.364;5.448;2024-03-02T04:12:37;7.80;99.90
8979;DHT22;4524;51.364;5.448;2024-03-02T04:15:06;7.80;99.90
8979;DHT22;4524;51.364;5.448;2024-03-02T04:17:34;7.70;99.90
8979;DHT22;4524;51.364;5.448;2024-03-02T04:20:03;7.80;99.90
8979;DHT22;4524;51.364;5.448;2024-03-02T04:22:34;7.70;99.90
8979;DHT22;4524;51.364;5.448;2024-03-02T04:25:03;7.80;99.90
8979;DHT22;4524;51.364;5.448;2024-03-02T04:27:34;7.80;99.90
8979;DHT22;4524;51.364;5.448;2024-03-02T04:30:04;7.80;99.90
8979;DHT22;4524;51.364;5.448;2024-03-02T04:32:33;7.80;99.90
8979;DHT22;4524;51.364;5.448;2024-03-02T04:35:03;7.90;99.90
8979;DHT22;4524;51.364;5.448;2024-03-02T04:37:34;7.90;99.90
8979;DHT22;4524;51.364;5.448;2024-03-02T04:40:02;7.90;99.90
8979;DHT22;4524;51.364;5.448;2024-03-02T04:42:31;7.90;99.90
8979;DHT22;4524;51.364;5.448;2024-03-02T04:44:59;7.90;99.90
8979;DHT22;4524;51.364;5.448;2024-03-02T04:47:27;7.90;99.90
8979;DHT22;4524;51.364;5.448;2024-03-02T04:49:55;7.90;99.90
8979;DHT22;4524;51.364;5.448;2024-03-02T04:52:24;7.90;99.90
8979;DHT22;4524;51.364;5.448;2024-03-02T04:54:53;7.90;99.90
8979;DHT22;4524;51.364;5.448;2024-03-02T04:57:40;7.80;99.90
8979;DHT22;4524;51.364;5.448;2024-03-02T05:00:09;7.70;99.90
8979;DHT22;4524;51.364;5.448;2024-03-02T05:02:39;7.50;99.90
8979;DHT22;4524;51.364;5.448;2024-03-02T05:05:07;7.50;99.90
8979;DHT22;4524;51.364;5.448;2024-03-02T05:07:35;7.40;99.90
8979;DHT22;4524;51.364;5.448;2024-03-02T05:10:05;7.40;99.90
8979;DHT22;4524;51.364;5.448;2024-03-02T05:12:34;7.30;99.90
8979;DHT22;4524;51.364;5.448;2024-03-02T05:15:23;7.30;99.90
8979;DHT22;4524;51.364;5.448;2024-03-02T05:17:53;7.30;99.90
8979;DHT22;4524;51.364;5.448;2024-03-02T05:20:21;7.40;99.90
8979;DHT22;4524;51.364;5.448;2024-03-02T05:22:49;7.40;99.90
8979;DHT22;4524;51.364;5.448;2024-03-02T05:25:19;7.50;99.90
8979;DHT22;4524;51.364;5.448;2024-03-02T05:27:47;7.60;99.90
8979;DHT22;4524;51.364;5.448;2024-03-02T05:30:16;7.60;99.90
8979;DHT22;4524;51.364;5.448;2024-03-02T05:32:44;7.60;99.90
8979;DHT22;4524;51.364;5.448;2024-03-02T05:35:12;7.60;99.90
8979;DHT22;4524;51.364;5.448;2024-03-02T05:37:41;7.70;99.90
8979;DHT22;4524;51.364;5.448;2024-03-02T05:40:09;7.70;99.90
8979;DHT22;4524;51.364;5.448;2024-03-02T05:42:39;7.70;99.90
8979;DHT22;4524;51.364;5.448;2024-03-02T05:45:08;7.60;99.90
8979;DHT22;4524;51.364;5.448;2024-03-02T05:47:36;7.60;99.90
8979;DHT22;4524;51.364;5.448;2024-03-02T05:50:06;7.60;99.90
8979;DHT22;4524;51.364;5.448;2024-03-02T05:52:34;7.60;99.90
8979;DHT22;4524;51.364;5.448;2024-03-02T05:55:03;7.60;99.90
8979;DHT22;4524;51.364;5.448;2024-03-02T05:57:31;7.60;99.90
8979;DHT22;4524;51.364;5.448;2024-03-02T06:00:16;7.60;99.90
8979;DHT22;4524;51.364;5.448;2024-03-02T06:02:45;7.50;99.90
8979;DHT22;4524;51.364;5.448;2024-03-02T06:05:13;7.50;99.90
8979;DHT22;4524;51.364;5.448;2024-03-02T06:07:41;7.40;99.90
8979;DHT22;4524;51.364;5.448;2024-03-02T06:10:10;7.40;99.90
8979;DHT22;4524;51.364;5.448;2024-03-02T06:12:40;7.30;99.90
8979;DHT22;4524;51.364;5.448;2024-03-02T06:15:09;7.30;99.90
8979;DHT22;4524;51.364;5.448;2024-03-02T06:17:38;7.30;99.90
8979;DHT22;4524;51.364;5.448;2024-03-02T06:20:07;7.20;99.90
8979;DHT22;4524;51.364;5.448;2024-03-02T06:22:36;7.20;99.90
8979;DHT22;4524;51.364;5.448;2024-03-02T06:25:04;7.20;99.90
8979;DHT22;4524;51.364;5.448;2024-03-02T06:27:33;7.20;99.90
8979;DHT22;4524;51.364;5.448;2024-03-02T06:30:01;7.20;99.90
8979;DHT22;4524;51.364;5.448;2024-03-02T06:32:30;7.10;99.90
8979;DHT22;4524;51.364;5.448;2024-03-02T06:35:00;7.20;99.90
8979;DHT22;4524;51.364;5.448;2024-03-02T06:37:30;7.20;99.90
8979;DHT22;4524;51.364;5.448;2024-03-02T06:39:59;7.20;99.90
8979;DHT22;4524;51.364;5.448;2024-03-02T06:42:27;7.20;99.90
8979;DHT22;4524;51.364;5.448;2024-03-02T06:45:01;7.20;99.90
8979;DHT22;4524;51.364;5.448;2024-03-02T06:47:29;7.20;99.90
8979;DHT22;4524;51.364;5.448;2024-03-02T06:50:00;7.20;99.90
8979;DHT22;4524;51.364;5.448;2024-03-02T06:52:29;7.30;99.90
8979;DHT22;4524;51.364;5.448;2024-03-02T06:54:57;7.30;99.90
8979;DHT22;4524;51.364;5.448;2024-03-02T06:57:25;7.30;99.90
8979;DHT22;4524;51.364;5.448;2024-03-02T06:59:54;7.30;99.90
8979;DHT22;4524;51.364;5.448;2024-03-02T07:02:26;7.30;99.90
8979;DHT22;4524;51.364;5.448;2024-03-02T07:04:54;7.40;99.90
8979;DHT22;4524;51.364;5.448;2024-03-02T07:07:24;7.40;99.90
8979;DHT22;4524;51.364;5.448;2024-03-02T07:09:52;7.40;99.90
8979;DHT22;4524;51.364;5.448;2024-03-02T07:12:21;7.50;99.90
8979;DHT22;4524;51.364;5.448;2024-03-02T07:14:50;7.50;99.90
8979;DHT22;4524;51.364;5.448;2024-03-02T07:17:39;7.60;99.90
8979;DHT22;4524;51.364;5.448;2024-03-02T07:20:08;7.70;99.90
8979;DHT22;4524;51.364;5.448;2024-03-02T07:22:38;7.70;99.90
8979;DHT22;4524;51.364;5.448;2024-03-02T07:25:09;7.70;99.90
8979;DHT22;4524;51.364;5.448;2024-03-02T07:27:58;7.80;99.90
8979;DHT22;4524;51.364;5.448;2024-03-02T07:30:26;7.80;99.90
8979;DHT22;4524;51.364;5.448;2024-03-02T07:32:57;7.80;99.90
8979;DHT22;4524;51.364;5.448;2024-03-02T07:35:25;7.80;99.90
8979;DHT22;4524;51.364;5.448;2024-03-02T07:37:56;7.80;99.90
8979;DHT22;4524;51.364;5.448;2024-03-02T07:40:25;7.70;99.90
8979;DHT22;4524;51.364;5.448;2024-03-02T07:42:53;7.70;99.90
8979;DHT22;4524;51.364;5.448;2024-03-02T07:45:23;7.70;99.90
8979;DHT22;4524;51.364;5.448;2024-03-02T07:47:51;7.70;99.90
8979;DHT22;4524;51.364;5.448;2024-03-02T07:50:22;7.70;99.90
8979;DHT22;4524;51.364;5.448;2024-03-02T07:52:50;7.70;99.90
8979;DHT22;4524;51.364;5.448;2024-03-02T07:55:20;7.70;99.90
8979;DHT22;4524;51.364;5.448;2024-03-02T07:57:50;7.70;99.90
8979;DHT22;4524;51.364;5.448;2024-03-02T08:00:19;7.70;99.90
8979;DHT22;4524;51.364;5.448;2024-03-02T08:02:48;7.70;99.90
8979;DHT22;4524;51.364;5.448;2024-03-02T08:05:18;7.70;99.90
8979;DHT22;4524;51.364;5.448;2024-03-02T08:07:47;7.70;99.90
8979;DHT22;4524;51.364;5.448;2024-03-02T08:10:21;7.90;99.90
8979;DHT22;4524;51.364;5.448;2024-03-02T08:12:50;8.00;99.90
8979;DHT22;4524;51.364;5.448;2024-03-02T08:15:18;8.20;99.90
8979;DHT22;4524;51.364;5.448;2024-03-02T08:17:47;8.30;99.90
8979;DHT22;4524;51.364;5.448;2024-03-02T08:20:16;8.50;99.90
8979;DHT22;4524;51.364;5.448;2024-03-02T08:22:45;8.60;99.90
8979;DHT22;4524;51.364;5.448;2024-03-02T08:25:14;8.70;99.90
8979;DHT22;4524;51.364;5.448;2024-03-02T08:27:45;8.80;99.90
8979;DHT22;4524;51.364;5.448;2024-03-02T08:30:14;8.80;99.90
8979;DHT22;4524;51.364;5.448;2024-03-02T08:32:42;8.90;99.90
8979;DHT22;4524;51.364;5.448;2024-03-02T08:35:12;9.00;99.90
8979;DHT22;4524;51.364;5.448;2024-03-02T08:37:41;9.10;99.90
8979;DHT22;4524;51.364;5.448;2024-03-02T08:40:10;9.20;99.90
8979;DHT22;4524;51.364;5.448;2024-03-02T08:42:47;9.30;99.90
8979;DHT22;4524;51.364;5.448;2024-03-02T08:45:15;9.40;99.90
8979;DHT22;4524;51.364;5.448;2024-03-02T08:47:44;9.50;99.90
8979;DHT22;4524;51.364;5.448;2024-03-02T08:50:13;9.50;99.90
8979;DHT22;4524;51.364;5.448;2024-03-02T08:52:42;9.60;99.90
8979;DHT22;4524;51.364;5.448;2024-03-02T08:55:10;9.60;99.90
8979;DHT22;4524;51.364;5.448;2024-03-02T08:57:39;9.70;99.90
8979;DHT22;4524;51.364;5.448;2024-03-02T09:00:12;9.80;99.90
8979;DHT22;4524;51.364;5.448;2024-03-02T09:02:41;9.80;99.90
8979;DHT22;4524;51.364;5.448;2024-03-02T09:05:09;9.90;99.90
8979;DHT22;4524;51.364;5.448;2024-03-02T09:07:37;9.90;99.90
8979;DHT22;4524;51.364;5.448;2024-03-02T09:10:07;9.90;99.90
8979;DHT22;4524;51.364;5.448;2024-03-02T09:12:38;9.90;99.90
8979;DHT22;4524;51.364;5.448;2024-03-02T09:15:10;10.00;99.90
8979;DHT22;4524;51.364;5.448;2024-03-02T09:17:39;10.00;99.90
8979;DHT22;4524;51.364;5.448;2024-03-02T09:20:08;10.20;99.90
8979;DHT22;4524;51.364;5.448;2024-03-02T09:22:36;10.20;99.90
8979;DHT22;4524;51.364;5.448;2024-03-02T09:25:10;10.30;99.90
8979;DHT22;4524;51.364;5.448;2024-03-02T09:27:40;10.30;99.90
8979;DHT22;4524;51.364;5.448;2024-03-02T09:30:12;10.40;99.90
8979;DHT22;4524;51.364;5.448;2024-03-02T09:32:48;10.50;99.90
8979;DHT22;4524;51.364;5.448;2024-03-02T09:35:19;10.60;96.00
8979;DHT22;4524;51.364;5.448;2024-03-02T09:38:00;10.60;96.80
8979;DHT22;4524;51.364;5.448;2024-03-02T09:40:30;10.50;98.90
8979;DHT22;4524;51.364;5.448;2024-03-02T09:43:02;10.60;93.90
8979;DHT22;4524;51.364;5.448;2024-03-02T09:45:37;10.70;97.20
8979;DHT22;4524;51.364;5.448;2024-03-02T09:48:12;10.80;96.40
8979;DHT22;4524;51.364;5.448;2024-03-02T09:50:40;10.80;90.10
8979;DHT22;4524;51.364;5.448;2024-03-02T09:53:10;10.90;94.00
8979;DHT22;4524;51.364;5.448;2024-03-02T09:55:56;10.90;90.00
8979;DHT22;4524;51.364;5.448;2024-03-02T09:58:27;11.10;91.50
8979;DHT22;4524;51.364;5.448;2024-03-02T10:01:06;11.10;83.30
8979;DHT22;4524;51.364;5.448;2024-03-02T10:03:38;11.20;80.90
8979;DHT22;4524;51.364;5.448;2024-03-02T10:06:22;11.20;81.80
8979;DHT22;4524;51.364;5.448;2024-03-02T10:08:53;11.30;78.40
8979;DHT22;4524;51.364;5.448;2024-03-02T10:11:28;11.30;77.60
8979;DHT22;4524;51.364;5.448;2024-03-02T10:14:06;11.40;79.90
8979;DHT22;4524;51.364;5.448;2024-03-02T10:16:47;11.40;82.10
8979;DHT22;4524;51.364;5.448;2024-03-02T10:19:18;11.50;77.90
8979;DHT22;4524;51.364;5.448;2024-03-02T10:22:03;11.50;78.10
8979;DHT22;4524;51.364;5.448;2024-03-02T10:24:42;11.60;78.50
8979;DHT22;4524;51.364;5.448;2024-03-02T10:27:16;11.60;71.30
8979;DHT22;4524;51.364;5.448;2024-03-02T10:29:46;11.60;72.60
8979;DHT22;4524;51.364;5.448;2024-03-02T10:32:27;11.60;72.30
8979;DHT22;4524;51.364;5.448;2024-03-02T10:34:56;11.70;74.00
8979;DHT22;4524;51.364;5.448;2024-03-02T10:37:24;11.70;73.30
8979;DHT22;4524;51.364;5.448;2024-03-02T10:40:04;11.80;75.30
8979;DHT22;4524;51.364;5.448;2024-03-02T10:42:45;11.80;73.00
8979;DHT22;4524;51.364;5.448;2024-03-02T10:45:15;11.90;71.50
8979;DHT22;4524;51.364;5.448;2024-03-02T10:47:51;11.70;72.40
8979;DHT22;4524;51.364;5.448;2024-03-02T10:50:24;11.80;72.60
8979;DHT22;4524;51.364;5.448;2024-03-02T10:52:55;11.90;71.80
8979;DHT22;4524;51.364;5.448;2024-03-02T10:55:27;11.90;69.40
8979;DHT22;4524;51.364;5.448;2024-03-02T10:58:04;12.00;69.60
8979;DHT22;4524;51.364;5.448;2024-03-02T11:00:38;12.00;68.90
8979;DHT22;4524;51.364;5.448;2024-03-02T11:03:27;12.00;68.90
8979;DHT22;4524;51.364;5.448;2024-03-02T11:06:13;12.10;71.70
8979;DHT22;4524;51.364;5.448;2024-03-02T11:08:44;11.90;69.00
8979;DHT22;4524;51.364;5.448;2024-03-02T11:11:23;11.90;70.50
8979;DHT22;4524;51.364;5.448;2024-03-02T11:14:02;11.80;70.70
8979;DHT22;4524;51.364;5.448;2024-03-02T11:16:36;11.90;70.30
8979;DHT22;4524;51.364;5.448;2024-03-02T11:19:32;11.90;69.50
8979;DHT22;4524;51.364;5.448;2024-03-02T11:22:10;12.00;70.20
8979;DHT22;4524;51.364;5.448;2024-03-02T11:24:53;12.10;70.10
8979;DHT22;4524;51.364;5.448;2024-03-02T11:27:59;12.20;70.90
8979;DHT22;4524;51.364;5.448;2024-03-02T11:31:00;12.20;69.90
8979;DHT22;4524;51.364;5.448;2024-03-02T11:33:31;12.20;70.10
8979;DHT22;4524;51.364;5.448;2024-03-02T11:36:05;12.30;69.60
8979;DHT22;4524;51.364;5.448;2024-03-02T11:38:45;12.30;67.60
8979;DHT22;4524;51.364;5.448;2024-03-02T11:41:15;12.30;68.90
8979;DHT22;4524;51.364;5.448;2024-03-02T11:43:47;12.30;66.90
8979;DHT22;4524;51.364;5.448;2024-03-02T11:46:22;12.40;69.00
8979;DHT22;4524;51.364;5.448;2024-03-02T11:48:54;12.50;67.70
8979;DHT22;4524;51.364;5.448;2024-03-02T11:51:26;12.40;68.90
8979;DHT22;4524;51.364;5.448;2024-03-02T11:54:06;12.50;68.10
8979;DHT22;4524;51.364;5.448;2024-03-02T11:56:36;12.50;67.00
8979;DHT22;4524;51.364;5.448;2024-03-02T11:59:06;12.60;65.30
8979;DHT22;4524;51.364;5.448;2024-03-02T12:01:35;12.60;66.10
8979;DHT22;4524;51.364;5.448;2024-03-02T12:04:13;12.60;66.30
8979;DHT22;4524;51.364;5.448;2024-03-02T12:06:58;12.60;65.60
8979;DHT22;4524;51.364;5.448;2024-03-02T12:09:30;12.70;67.70
8979;DHT22;4524;51.364;5.448;2024-03-02T12:12:06;12.80;67.60
8979;DHT22;4524;51.364;5.448;2024-03-02T12:14:36;12.90;68.00
8979;DHT22;4524;51.364;5.448;2024-03-02T12:17:05;12.90;66.90
8979;DHT22;4524;51.364;5.448;2024-03-02T12:19:36;12.80;66.30
8979;DHT22;4524;51.364;5.448;2024-03-02T12:22:08;12.90;66.60
8979;DHT22;4524;51.364;5.448;2024-03-02T12:24:37;13.00;67.20
8979;DHT22;4524;51.364;5.448;2024-03-02T12:27:09;13.00;65.50
8979;DHT22;4524;51.364;5.448;2024-03-02T12:29:39;13.00;64.60
8979;DHT22;4524;51.364;5.448;2024-03-02T12:32:08;13.20;64.10
8979;DHT22;4524;51.364;5.448;2024-03-02T12:34:38;13.20;64.10
8979;DHT22;4524;51.364;5.448;2024-03-02T12:37:14;13.30;63.00
8979;DHT22;4524;51.364;5.448;2024-03-02T12:39:45;13.30;63.40
8979;DHT22;4524;51.364;5.448;2024-03-02T12:42:24;13.30;63.60
8979;DHT22;4524;51.364;5.448;2024-03-02T12:44:53;13.30;62.90
8979;DHT22;4524;51.364;5.448;2024-03-02T12:47:24;13.40;63.70
8979;DHT22;4524;51.364;5.448;2024-03-02T12:49:55;13.40;64.00
8979;DHT22;4524;51.364;5.448;2024-03-02T12:52:27;13.30;63.30
8979;DHT22;4524;51.364;5.448;2024-03-02T12:54:57;13.40;63.90
8979;DHT22;4524;51.364;5.448;2024-03-02T12:57:26;13.50;63.20
8979;DHT22;4524;51.364;5.448;2024-03-02T12:59:58;13.60;62.90
8979;DHT22;4524;51.364;5.448;2024-03-02T13:02:32;13.60;62.00
8979;DHT22;4524;51.364;5.448;2024-03-02T13:05:06;13.70;62.10
8979;DHT22;4524;51.364;5.448;2024-03-02T13:07:47;13.70;61.90
8979;DHT22;4524;51.364;5.448;2024-03-02T13:10:22;13.70;62.50
8979;DHT22;4524;51.364;5.448;2024-03-02T13:13:06;13.60;61.50
8979;DHT22;4524;51.364;5.448;2024-03-02T13:15:41;13.60;61.50
8979;DHT22;4524;51.364;5.448;2024-03-02T13:18:19;13.60;61.80
8979;DHT22;4524;51.364;5.448;2024-03-02T13:20:51;13.70;62.30
8979;DHT22;4524;51.364;5.448;2024-03-02T13:23:21;13.80;61.70
8979;DHT22;4524;51.364;5.448;2024-03-02T13:25:50;13.70;61.60
8979;DHT22;4524;51.364;5.448;2024-03-02T13:28:18;13.70;62.70
8979;DHT22;4524;51.364;5.448;2024-03-02T13:30:49;13.60;62.30
8979;DHT22;4524;51.364;5.448;2024-03-02T13:33:19;13.60;62.30
8979;DHT22;4524;51.364;5.448;2024-03-02T13:35:53;13.60;61.80
8979;DHT22;4524;51.364;5.448;2024-03-02T13:38:25;13.50;62.20
8979;DHT22;4524;51.364;5.448;2024-03-02T13:40:59;13.60;62.90
8979;DHT22;4524;51.364;5.448;2024-03-02T13:43:28;13.50;62.40
8979;DHT22;4524;51.364;5.448;2024-03-02T13:46:00;13.40;63.10
8979;DHT22;4524;51.364;5.448;2024-03-02T13:48:29;13.30;63.70
8979;DHT22;4524;51.364;5.448;2024-03-02T13:51:03;13.30;63.60
8979;DHT22;4524;51.364;5.448;2024-03-02T13:53:34;13.40;64.00
8979;DHT22;4524;51.364;5.448;2024-03-02T13:56:06;13.40;63.90
8979;DHT22;4524;51.364;5.448;2024-03-02T13:58:53;13.50;63.20
8979;DHT22;4524;51.364;5.448;2024-03-02T14:01:21;13.60;63.90
8979;DHT22;4524;51.364;5.448;2024-03-02T14:03:51;13.60;62.70
8979;DHT22;4524;51.364;5.448;2024-03-02T14:06:22;13.60;62.60
8979;DHT22;4524;51.364;5.448;2024-03-02T14:08:53;13.60;63.00
8979;DHT22;4524;51.364;5.448;2024-03-02T14:11:22;13.70;62.60
8979;DHT22;4524;51.364;5.448;2024-03-02T14:13:50;13.70;62.80
8979;DHT22;4524;51.364;5.448;2024-03-02T14:16:21;13.60;62.90
8979;DHT22;4524;51.364;5.448;2024-03-02T14:18:51;13.50;63.30
8979;DHT22;4524;51.364;5.448;2024-03-02T14:21:20;13.50;63.60
8979;DHT22;4524;51.364;5.448;2024-03-02T14:24:15;13.60;64.10
8979;DHT22;4524;51.364;5.448;2024-03-02T14:27:00;13.70;64.60
8979;DHT22;4524;51.364;5.448;2024-03-02T14:29:47;13.70;63.80
8979;DHT22;4524;51.364;5.448;2024-03-02T14:32:35;13.70;64.40
8979;DHT22;4524;51.364;5.448;2024-03-02T14:35:05;13.60;63.00
8979;DHT22;4524;51.364;5.448;2024-03-02T14:37:41;13.70;64.10
8979;DHT22;4524;51.364;5.448;2024-03-02T14:40:15;13.80;63.40
8979;DHT22;4524;51.364;5.448;2024-03-02T14:42:45;14.10;62.50
8979;DHT22;4524;51.364;5.448;2024-03-02T14:45:17;14.20;62.70
8979;DHT22;4524;51.364;5.448;2024-03-02T14:47:46;14.10;62.80
8979;DHT22;4524;51.364;5.448;2024-03-02T14:50:19;14.10;63.00
8979;DHT22;4524;51.364;5.448;2024-03-02T14:52:50;13.90;63.60
8979;DHT22;4524;51.364;5.448;2024-03-02T14:55:22;13.80;63.10
8979;DHT22;4524;51.364;5.448;2024-03-02T14:57:53;13.70;64.90
8979;DHT22;4524;51.364;5.448;2024-03-02T15:00:24;13.60;63.70
8979;DHT22;4524;51.364;5.448;2024-03-02T15:02:58;13.60;63.70
8979;DHT22;4524;51.364;5.448;2024-03-02T15:05:29;13.50;64.60
8979;DHT22;4524;51.364;5.448;2024-03-02T15:08:00;13.50;64.40
8979;DHT22;4524;51.364;5.448;2024-03-02T15:10:44;13.50;64.50
8979;DHT22;4524;51.364;5.448;2024-03-02T15:13:16;13.60;64.10
8979;DHT22;4524;51.364;5.448;2024-03-02T15:15:52;13.70;64.60
8979;DHT22;4524;51.364;5.448;2024-03-02T15:18:23;13.70;64.20
8979;DHT22;4524;51.364;5.448;2024-03-02T15:20:55;13.70;65.00
8979;DHT22;4524;51.364;5.448;2024-03-02T15:23:29;13.60;65.30
8979;DHT22;4524;51.364;5.448;2024-03-02T15:26:00;13.60;65.30
8979;DHT22;4524;51.364;5.448;2024-03-02T15:28:37;13.60;65.30
8979;DHT22;4524;51.364;5.448;2024-03-02T15:31:23;13.50;65.90
8979;DHT22;4524;51.364;5.448;2024-03-02T15:33:53;13.50;65.30
8979;DHT22;4524;51.364;5.448;2024-03-02T15:36:22;13.50;64.60
8979;DHT22;4524;51.364;5.448;2024-03-02T15:38:51;13.40;65.40
8979;DHT22;4524;51.364;5.448;2024-03-02T15:41:29;13.30;65.10
8979;DHT22;4524;51.364;5.448;2024-03-02T15:44:03;13.30;65.80
8979;DHT22;4524;51.364;5.448;2024-03-02T15:46:36;13.30;66.20
8979;DHT22;4524;51.364;5.448;2024-03-02T15:49:15;13.30;66.50
8979;DHT22;4524;51.364;5.448;2024-03-02T15:52:20;13.30;66.60
8979;DHT22;4524;51.364;5.448;2024-03-02T15:54:51;13.40;67.00
8979;DHT22;4524;51.364;5.448;2024-03-02T15:57:24;13.40;66.90
8979;DHT22;4524;51.364;5.448;2024-03-02T15:59:58;13.40;66.70
8979;DHT22;4524;51.364;5.448;2024-03-02T16:02:37;13.40;67.40
8979;DHT22;4524;51.364;5.448;2024-03-02T16:05:07;13.30;67.60
8979;DHT22;4524;51.364;5.448;2024-03-02T16:07:38;13.30;67.80
8979;DHT22;4524;51.364;5.448;2024-03-02T16:10:08;13.20;68.00
8979;DHT22;4524;51.364;5.448;2024-03-02T16:12:40;13.20;67.70
8979;DHT22;4524;51.364;5.448;2024-03-02T16:15:10;13.10;67.90
8979;DHT22;4524;51.364;5.448;2024-03-02T16:17:39;13.10;68.30
8979;DHT22;4524;51.364;5.448;2024-03-02T16:20:20;13.00;69.00
8979;DHT22;4524;51.364;5.448;2024-03-02T16:23:08;13.00;69.70
8979;DHT22;4524;51.364;5.448;2024-03-02T16:25:40;13.00;69.90
8979;DHT22;4524;51.364;5.448;2024-03-02T16:28:20;12.90;70.30
8979;DHT22;4524;51.364;5.448;2024-03-02T16:30:51;12.80;71.00
8979;DHT22;4524;51.364;5.448;2024-03-02T16:33:24;12.80;71.50
8979;DHT22;4524;51.364;5.448;2024-03-02T16:36:12;12.80;72.30
8979;DHT22;4524;51.364;5.448;2024-03-02T16:38:42;12.80;71.40